Main page
METAR-TAF:

METAR-TAF

Airports :

Petrolina Airport

Petrolina, Pernambuco, Brazil

latitude: 09-21S, longitude: 040-33W, elevation: 385 m

Current weather observation

The report was made 10 minutes ago, at 10:00 UTC
Wind 11 kt from the South/Southeast
Temperature 22°C
Humidity 69%
Pressure 1018 hPa
Visibility 10 km or more
Few clouds at a height of 2500 ft

METAR: SBPL 231000Z 16011KT 9999 FEW025 22/16 Q1018

Time: 07:10 (10:10 UTC)

Forecast

The report was made 6 hours and 10 minutes ago, at 04:00 UTC
Forecast valid from 23 at 06 UTC to 24 at 06 UTC
Wind 10 kt from the Southeast
Visibility 10 km or more
Few clouds at a height of 2000 ft
Becoming
from 23 at 11 UTC to 23 at 13 UTC
Wind 12 kt from the South
Few clouds at a height of 2500 ft
Becoming
from 23 at 19 UTC to 23 at 21 UTC
Wind 8 kt from the South/Southeast
Visibility 10 km or more
no clouds below 1500 m and no cumulonimbus

TAF: SBPL 230400Z 2306/2406 13010KT 9999 FEW020 TN22/2308Z TX34/2319Z BECMG 2311/2313 17012KT FEW025 BECMG 2319/2321 16008KT CAVOK RMK PAY

Weather observations and forecasts of more than 4000 airports (METAR and TAF reports).

The available stations are represented by yellow and red dots on the map.

Hover mouse over dot to see the name of the station.

Then click to see weather observations and forecasts.

To change the map : click on the green buttons with a black cross to zoom in, on the green button with a dash to zoom out, or on the green arrows for adjacent maps.


METAR-TAF: